sensor_id;sensor_type;location;lat;lon;timestamp;pressure;altitude;pressure_sealevel;temperature;humidity
23677;BME280;31493;49.058;12.190;2023-07-31T00:02:04;96165.41;;;14.57;71.42
23677;BME280;31493;49.058;12.190;2023-07-31T00:04:31;96167.88;;;14.58;71.35
23677;BME280;31493;49.058;12.190;2023-07-31T00:06:58;96164.44;;;14.58;71.44
23677;BME280;31493;49.058;12.190;2023-07-31T00:09:26;96163.19;;;14.52;71.94
23677;BME280;31493;49.058;12.190;2023-07-31T00:11:53;96150.13;;;14.52;71.69
23677;BME280;31493;49.058;12.190;2023-07-31T00:14:20;96167.03;;;14.48;71.59
23677;BME280;31493;49.058;12.190;2023-07-31T00:16:47;96157.56;;;14.47;71.61
23677;BME280;31493;49.058;12.190;2023-07-31T00:19:14;96167.38;;;14.34;72.12
23677;BME280;31493;49.058;12.190;2023-07-31T00:21:41;96164.66;;;14.36;72.20
23677;BME280;31493;49.058;12.190;2023-07-31T00:24:08;96156.56;;;14.39;71.83
23677;BME280;31493;49.058;12.190;2023-07-31T00:26:36;96156.47;;;14.50;71.33
23677;BME280;31493;49.058;12.190;2023-07-31T00:29:03;96160.84;;;14.49;71.08
23677;BME280;31493;49.058;12.190;2023-07-31T00:31:30;96154.75;;;14.39;71.40
23677;BME280;31493;49.058;12.190;2023-07-31T00:33:57;96155.19;;;14.44;70.97
23677;BME280;31493;49.058;12.190;2023-07-31T00:36:24;96161.34;;;14.33;71.41
23677;BME280;31493;49.058;12.190;2023-07-31T00:38:51;96154.53;;;14.42;71.13
23677;BME280;31493;49.058;12.190;2023-07-31T00:41:18;96158.47;;;14.37;71.22
23677;BME280;31493;49.058;12.190;2023-07-31T00:43:47;96167.69;;;14.41;71.06
23677;BME280;31493;49.058;12.190;2023-07-31T00:46:14;96151.09;;;14.42;71.04
23677;BME280;31493;49.058;12.190;2023-07-31T00:48:41;96152.06;;;14.41;71.16
23677;BME280;31493;49.058;12.190;2023-07-31T00:51:08;96150.81;;;14.45;70.60
23677;BME280;31493;49.058;12.190;2023-07-31T00:53:36;96144.75;;;14.35;71.64
23677;BME280;31493;49.058;12.190;2023-07-31T00:56:03;96148.00;;;14.27;71.88
23677;BME280;31493;49.058;12.190;2023-07-31T00:58:31;96154.38;;;14.44;71.59
23677;BME280;31493;49.058;12.190;2023-07-31T01:00:59;96155.72;;;14.38;71.66
23677;BME280;31493;49.058;12.190;2023-07-31T01:03:26;96132.13;;;14.40;71.16
23677;BME280;31493;49.058;12.190;2023-07-31T01:06:05;96137.00;;;14.54;71.38
23677;BME280;31493;49.058;12.190;2023-07-31T01:08:40;96134.75;;;14.49;71.48
23677;BME280;31493;49.058;12.190;2023-07-31T01:11:14;96146.31;;;14.47;71.51
23677;BME280;31493;49.058;12.190;2023-07-31T01:13:42;96142.66;;;14.28;71.98
23677;BME280;31493;49.058;12.190;2023-07-31T01:16:11;96133.31;;;14.26;72.63
23677;BME280;31493;49.058;12.190;2023-07-31T01:18:38;96131.53;;;14.26;72.59
23677;BME280;31493;49.058;12.190;2023-07-31T01:21:21;96132.78;;;14.32;72.72
23677;BME280;31493;49.058;12.190;2023-07-31T01:24:08;96134.34;;;14.44;72.27
23677;BME280;31493;49.058;12.190;2023-07-31T01:26:45;96126.88;;;14.30;73.17
23677;BME280;31493;49.058;12.190;2023-07-31T01:29:18;96125.34;;;14.27;73.02
23677;BME280;31493;49.058;12.190;2023-07-31T01:31:48;96116.25;;;14.22;73.18
23677;BME280;31493;49.058;12.190;2023-07-31T01:34:17;96124.19;;;14.11;73.61
23677;BME280;31493;49.058;12.190;2023-07-31T01:36:45;96117.34;;;14.19;73.52
23677;BME280;31493;49.058;12.190;2023-07-31T01:39:12;96119.91;;;14.10;73.85
23677;BME280;31493;49.058;12.190;2023-07-31T01:41:42;96111.69;;;14.14;74.09
23677;BME280;31493;49.058;12.190;2023-07-31T01:44:09;96126.28;;;14.17;73.77
23677;BME280;31493;49.058;12.190;2023-07-31T01:46:36;96119.28;;;14.17;73.72
23677;BME280;31493;49.058;12.190;2023-07-31T01:49:03;96116.91;;;14.14;74.33
23677;BME280;31493;49.058;12.190;2023-07-31T01:51:31;96121.88;;;14.17;74.03
23677;BME280;31493;49.058;12.190;2023-07-31T01:53:59;96116.16;;;14.23;73.81
23677;BME280;31493;49.058;12.190;2023-07-31T01:56:26;96105.28;;;14.18;74.23
23677;BME280;31493;49.058;12.190;2023-07-31T01:58:55;96115.06;;;14.26;73.71
23677;BME280;31493;49.058;12.190;2023-07-31T02:01:22;96098.13;;;14.20;73.60
23677;BME280;31493;49.058;12.190;2023-07-31T02:03:49;96100.63;;;14.22;73.43
23677;BME280;31493;49.058;12.190;2023-07-31T02:06:16;96097.41;;;14.09;73.96
23677;BME280;31493;49.058;12.190;2023-07-31T02:08:43;96107.41;;;14.03;74.06
23677;BME280;31493;49.058;12.190;2023-07-31T02:11:10;96100.00;;;13.99;74.40
23677;BME280;31493;49.058;12.190;2023-07-31T02:13:37;96102.59;;;13.99;74.26
23677;BME280;31493;49.058;12.190;2023-07-31T02:16:05;96104.75;;;13.94;74.70
23677;BME280;31493;49.058;12.190;2023-07-31T02:18:32;96099.38;;;13.86;74.87
23677;BME280;31493;49.058;12.190;2023-07-31T02:20:59;96105.28;;;13.88;75.32
23677;BME280;31493;49.058;12.190;2023-07-31T02:23:26;96101.28;;;13.84;75.17
23677;BME280;31493;49.058;12.190;2023-07-31T02:25:53;96101.28;;;13.84;75.09
23677;BME280;31493;49.058;12.190;2023-07-31T02:28:20;96098.53;;;13.85;75.30
23677;BME280;31493;49.058;12.190;2023-07-31T02:30:47;96083.03;;;13.84;75.62
23677;BME280;31493;49.058;12.190;2023-07-31T02:33:15;96083.84;;;13.84;75.33
23677;BME280;31493;49.058;12.190;2023-07-31T02:35:42;96082.06;;;13.85;74.91
23677;BME280;31493;49.058;12.190;2023-07-31T02:38:09;96092.50;;;13.85;75.53
23677;BME280;31493;49.058;12.190;2023-07-31T02:40:36;96086.16;;;13.77;75.54
23677;BME280;31493;49.058;12.190;2023-07-31T02:43:03;96089.28;;;13.71;76.00
23677;BME280;31493;49.058;12.190;2023-07-31T02:45:30;96088.44;;;13.71;75.66
23677;BME280;31493;49.058;12.190;2023-07-31T02:47:57;96090.69;;;13.75;75.53
23677;BME280;31493;49.058;12.190;2023-07-31T02:50:26;96093.44;;;13.84;75.42
23677;BME280;31493;49.058;12.190;2023-07-31T02:52:54;96084.88;;;13.93;74.71
23677;BME280;31493;49.058;12.190;2023-07-31T02:55:21;96078.69;;;13.94;74.64
23677;BME280;31493;49.058;12.190;2023-07-31T02:57:48;96073.63;;;13.92;74.58
23677;BME280;31493;49.058;12.190;2023-07-31T03:00:15;96059.78;;;13.92;75.04
23677;BME280;31493;49.058;12.190;2023-07-31T03:02:42;96064.69;;;13.95;75.03
23677;BME280;31493;49.058;12.190;2023-07-31T03:05:09;96068.66;;;13.89;75.27
23677;BME280;31493;49.058;12.190;2023-07-31T03:07:37;96078.63;;;13.84;75.21
23677;BME280;31493;49.058;12.190;2023-07-31T03:10:05;96082.88;;;13.85;75.48
23677;BME280;31493;49.058;12.190;2023-07-31T03:12:32;96077.13;;;13.82;75.78
23677;BME280;31493;49.058;12.190;2023-07-31T03:14:59;96069.16;;;13.73;75.88
23677;BME280;31493;49.058;12.190;2023-07-31T03:17:26;96068.50;;;13.81;75.76
23677;BME280;31493;49.058;12.190;2023-07-31T03:19:53;96072.16;;;13.78;75.93
23677;BME280;31493;49.058;12.190;2023-07-31T03:22:20;96075.88;;;13.76;76.37
23677;BME280;31493;49.058;12.190;2023-07-31T03:24:49;96084.88;;;13.72;76.29
23677;BME280;31493;49.058;12.190;2023-07-31T03:27:16;96082.56;;;13.69;76.21
23677;BME280;31493;49.058;12.190;2023-07-31T03:29:43;96088.16;;;13.64;76.37
23677;BME280;31493;49.058;12.190;2023-07-31T03:32:10;96093.34;;;13.64;76.63
23677;BME280;31493;49.058;12.190;2023-07-31T03:34:37;96082.50;;;13.59;76.82
23677;BME280;31493;49.058;12.190;2023-07-31T03:37:05;96090.16;;;13.61;76.97
23677;BME280;31493;49.058;12.190;2023-07-31T03:39:32;96084.03;;;13.62;76.92
23677;BME280;31493;49.058;12.190;2023-07-31T03:42:00;96096.66;;;13.66;76.96
23677;BME280;31493;49.058;12.190;2023-07-31T03:44:27;96081.16;;;13.65;76.55
23677;BME280;31493;49.058;12.190;2023-07-31T03:46:54;96091.13;;;13.60;76.81
23677;BME280;31493;49.058;12.190;2023-07-31T03:49:21;96082.34;;;13.61;77.15
23677;BME280;31493;49.058;12.190;2023-07-31T03:51:49;96085.53;;;13.64;76.99
23677;BME280;31493;49.058;12.190;2023-07-31T03:54:16;96081.66;;;13.59;76.92
23677;BME280;31493;49.058;12.190;2023-07-31T03:56:43;96077.28;;;13.59;77.26
23677;BME280;31493;49.058;12.190;2023-07-31T03:59:12;96078.91;;;13.60;77.47
23677;BME280;31493;49.058;12.190;2023-07-31T04:01:39;96080.69;;;13.60;77.12
23677;BME280;31493;49.058;12.190;2023-07-31T04:04:06;96072.25;;;13.46;77.85
23677;BME280;31493;49.058;12.190;2023-07-31T04:06:33;96081.22;;;13.54;78.10
23677;BME280;31493;49.058;12.190;2023-07-31T04:09:00;96080.00;;;13.58;78.12
23677;BME280;31493;49.058;12.190;2023-07-31T04:11:27;96088.00;;;13.66;77.78
23677;BME280;31493;49.058;12.190;2023-07-31T04:13:54;96080.19;;;13.66;77.21
23677;BME280;31493;49.058;12.190;2023-07-31T04:16:22;96083.63;;;13.66;77.22
23677;BME280;31493;49.058;12.190;2023-07-31T04:18:49;96072.97;;;13.69;77.20
23677;BME280;31493;49.058;12.190;2023-07-31T04:21:16;96073.97;;;13.57;77.52
23677;BME280;31493;49.058;12.190;2023-07-31T04:23:43;96076.44;;;13.59;77.85
23677;BME280;31493;49.058;12.190;2023-07-31T04:26:10;96075.63;;;13.58;77.87
23677;BME280;31493;49.058;12.190;2023-07-31T04:28:37;96068.69;;;13.68;77.57
23677;BME280;31493;49.058;12.190;2023-07-31T04:31:04;96069.78;;;13.66;77.51
23677;BME280;31493;49.058;12.190;2023-07-31T04:33:32;96065.97;;;13.70;78.08
23677;BME280;31493;49.058;12.190;2023-07-31T04:35:59;96069.78;;;13.66;77.96
23677;BME280;31493;49.058;12.190;2023-07-31T04:38:26;96064.47;;;13.77;77.40
23677;BME280;31493;49.058;12.190;2023-07-31T04:40:53;96068.88;;;13.76;77.19
23677;BME280;31493;49.058;12.190;2023-07-31T04:43:20;96063.13;;;13.83;77.45
23677;BME280;31493;49.058;12.190;2023-07-31T04:45:47;96051.38;;;13.88;77.73
23677;BME280;31493;49.058;12.190;2023-07-31T04:48:16;96060.00;;;13.89;77.56
23677;BME280;31493;49.058;12.190;2023-07-31T04:50:44;96066.22;;;13.97;77.46
23677;BME280;31493;49.058;12.190;2023-07-31T04:53:11;96063.06;;;14.03;76.37
23677;BME280;31493;49.058;12.190;2023-07-31T04:55:38;96054.47;;;14.13;76.59
23677;BME280;31493;49.058;12.190;2023-07-31T04:58:05;96051.44;;;14.08;76.71
23677;BME280;31493;49.058;12.190;2023-07-31T05:00:32;96053.53;;;14.14;76.74
23677;BME280;31493;49.058;12.190;2023-07-31T05:02:59;96046.00;;;14.20;75.65
23677;BME280;31493;49.058;12.190;2023-07-31T05:05:26;96047.66;;;14.31;75.95
23677;BME280;31493;49.058;12.190;2023-07-31T05:07:54;96045.31;;;14.28;76.27
23677;BME280;31493;49.058;12.190;2023-07-31T05:10:21;96046.84;;;14.30;75.77
23677;BME280;31493;49.058;12.190;2023-07-31T05:12:48;96053.75;;;14.41;74.96
23677;BME280;31493;49.058;12.190;2023-07-31T05:15:16;96053.50;;;14.54;75.14
23677;BME280;31493;49.058;12.190;2023-07-31T05:17:43;96058.75;;;14.64;75.21
23677;BME280;31493;49.058;12.190;2023-07-31T05:20:10;96049.97;;;14.74;74.67
23677;BME280;31493;49.058;12.190;2023-07-31T05:22:37;96052.44;;;14.76;74.20
23677;BME280;31493;49.058;12.190;2023-07-31T05:25:06;96069.47;;;14.90;73.75
23677;BME280;31493;49.058;12.190;2023-07-31T05:27:33;96068.09;;;14.95;73.90
23677;BME280;31493;49.058;12.190;2023-07-31T05:30:00;96052.72;;;15.02;74.96
23677;BME280;31493;49.058;12.190;2023-07-31T05:32:28;96060.00;;;15.08;73.97
23677;BME280;31493;49.058;12.190;2023-07-31T05:34:55;96048.03;;;14.96;73.93
23677;BME280;31493;49.058;12.190;2023-07-31T05:37:22;96049.56;;;15.08;73.85
23677;BME280;31493;49.058;12.190;2023-07-31T05:39:49;96055.31;;;15.02;73.69
23677;BME280;31493;49.058;12.190;2023-07-31T05:42:17;96040.22;;;15.05;74.30
23677;BME280;31493;49.058;12.190;2023-07-31T05:44:44;96049.16;;;15.03;73.72
23677;BME280;31493;49.058;12.190;2023-07-31T05:47:12;96046.13;;;15.07;74.40
23677;BME280;31493;49.058;12.190;2023-07-31T05:49:39;96040.50;;;15.12;73.74
23677;BME280;31493;49.058;12.190;2023-07-31T05:52:07;96040.50;;;15.22;72.93
23677;BME280;31493;49.058;12.190;2023-07-31T05:54:34;96037.84;;;15.31;73.73
23677;BME280;31493;49.058;12.190;2023-07-31T05:57:01;96040.31;;;15.43;73.04
23677;BME280;31493;49.058;12.190;2023-07-31T05:59:29;96043.88;;;15.51;73.39
23677;BME280;31493;49.058;12.190;2023-07-31T06:01:58;96038.06;;;15.67;72.90
23677;BME280;31493;49.058;12.190;2023-07-31T06:04:25;96033.38;;;15.61;72.58
23677;BME280;31493;49.058;12.190;2023-07-31T06:06:52;96040.78;;;15.85;72.52
23677;BME280;31493;49.058;12.190;2023-07-31T06:09:19;96047.00;;;15.74;73.31
23677;BME280;31493;49.058;12.190;2023-07-31T06:11:47;96030.31;;;15.85;72.17
23677;BME280;31493;49.058;12.190;2023-07-31T06:14:14;96035.72;;;15.74;72.55
23677;BME280;31493;49.058;12.190;2023-07-31T06:16:43;96029.91;;;15.89;72.20
23677;BME280;31493;49.058;12.190;2023-07-31T06:19:10;96048.72;;;15.93;72.74
23677;BME280;31493;49.058;12.190;2023-07-31T06:21:37;96044.78;;;15.70;73.60
23677;BME280;31493;49.058;12.190;2023-07-31T06:24:05;96042.06;;;15.71;73.61
23677;BME280;31493;49.058;12.190;2023-07-31T06:26:32;96041.75;;;15.74;74.23
23677;BME280;31493;49.058;12.190;2023-07-31T06:28:59;96043.25;;;15.86;74.30
23677;BME280;31493;49.058;12.190;2023-07-31T06:31:26;96040.38;;;15.80;74.47
23677;BME280;31493;49.058;12.190;2023-07-31T06:33:54;96052.78;;;15.78;75.27
23677;BME280;31493;49.058;12.190;2023-07-31T06:36:21;96059.41;;;15.72;76.09
23677;BME280;31493;49.058;12.190;2023-07-31T06:38:48;96047.78;;;15.84;75.62
23677;BME280;31493;49.058;12.190;2023-07-31T06:41:15;96053.81;;;15.95;74.28
23677;BME280;31493;49.058;12.190;2023-07-31T06:43:42;96053.88;;;16.12;74.35
23677;BME280;31493;49.058;12.190;2023-07-31T06:46:09;96056.59;;;16.21;73.63
23677;BME280;31493;49.058;12.190;2023-07-31T06:48:36;96052.03;;;16.23;72.89
23677;BME280;31493;49.058;12.190;2023-07-31T06:51:05;96060.22;;;16.37;72.73
23677;BME280;31493;49.058;12.190;2023-07-31T06:53:32;96058.31;;;16.57;73.48
23677;BME280;31493;49.058;12.190;2023-07-31T06:55:59;96045.28;;;16.75;72.34
23677;BME280;31493;49.058;12.190;2023-07-31T06:58:26;96053.16;;;16.65;72.23
23677;BME280;31493;49.058;12.190;2023-07-31T07:00:53;96038.72;;;16.61;71.44
23677;BME280;31493;49.058;12.190;2023-07-31T07:03:20;96029.50;;;16.85;71.48
23677;BME280;31493;49.058;12.190;2023-07-31T07:05:47;96041.97;;;16.91;72.78
23677;BME280;31493;49.058;12.190;2023-07-31T07:08:15;96032.94;;;16.85;71.64
23677;BME280;31493;49.058;12.190;2023-07-31T07:10:43;96039.09;;;17.38;72.05
23677;BME280;31493;49.058;12.190;2023-07-31T07:13:10;96029.69;;;17.09;72.34
23677;BME280;31493;49.058;12.190;2023-07-31T07:15:38;96039.25;;;17.36;72.58
23677;BME280;31493;49.058;12.190;2023-07-31T07:18:05;96033.03;;;17.37;70.58
23677;BME280;31493;49.058;12.190;2023-07-31T07:20:33;96038.13;;;17.39;70.10
23677;BME280;31493;49.058;12.190;2023-07-31T07:23:00;96037.47;;;17.37;71.71
23677;BME280;31493;49.058;12.190;2023-07-31T07:25:28;96035.72;;;17.45;70.93
23677;BME280;31493;49.058;12.190;2023-07-31T07:27:55;96037.09;;;17.58;70.93
23677;BME280;31493;49.058;12.190;2023-07-31T07:30:22;96046.72;;;17.67;70.36
23677;BME280;31493;49.058;12.190;2023-07-31T07:32:50;96048.56;;;17.57;69.84
23677;BME280;31493;49.058;12.190;2023-07-31T07:35:17;96046.41;;;17.78;69.55
23677;BME280;31493;49.058;12.190;2023-07-31T07:37:44;96042.50;;;17.74;68.11
23677;BME280;31493;49.058;12.190;2023-07-31T07:40:12;96037.44;;;17.81;68.17
23677;BME280;31493;49.058;12.190;2023-07-31T07:42:40;96039.03;;;17.73;68.85
23677;BME280;31493;49.058;12.190;2023-07-31T07:45:08;96045.16;;;17.64;68.70
23677;BME280;31493;49.058;12.190;2023-07-31T07:47:35;96045.31;;;17.81;68.37
23677;BME280;31493;49.058;12.190;2023-07-31T07:50:02;96036.09;;;17.76;67.06
23677;BME280;31493;49.058;12.190;2023-07-31T07:52:29;96037.47;;;17.89;67.57
23677;BME280;31493;49.058;12.190;2023-07-31T07:54:56;96039.09;;;17.82;68.03
23677;BME280;31493;49.058;12.190;2023-07-31T07:57:23;96034.09;;;17.70;68.03
23677;BME280;31493;49.058;12.190;2023-07-31T07:59:52;96038.22;;;17.73;68.06
23677;BME280;31493;49.058;12.190;2023-07-31T08:02:19;96030.31;;;17.47;66.53
23677;BME280;31493;49.058;12.190;2023-07-31T08:04:46;96032.97;;;17.73;66.84
23677;BME280;31493;49.058;12.190;2023-07-31T08:07:13;96029.44;;;17.64;65.88
23677;BME280;31493;49.058;12.190;2023-07-31T08:09:40;96035.94;;;17.78;64.34
23677;BME280;31493;49.058;12.190;2023-07-31T08:12:08;96044.84;;;18.19;65.46
23677;BME280;31493;49.058;12.190;2023-07-31T08:14:35;96043.41;;;18.33;65.12
23677;BME280;31493;49.058;12.190;2023-07-31T08:17:03;96047.38;;;18.37;64.32
23677;BME280;31493;49.058;12.190;2023-07-31T08:19:31;96041.28;;;18.28;63.99
23677;BME280;31493;49.058;12.190;2023-07-31T08:21:58;96043.22;;;18.26;63.95
23677;BME280;31493;49.058;12.190;2023-07-31T08:24:25;96054.34;;;18.20;63.89
23677;BME280;31493;49.058;12.190;2023-07-31T08:26:52;96052.66;;;18.03;62.34
23677;BME280;31493;49.058;12.190;2023-07-31T08:29:19;96043.16;;;18.10;63.25
23677;BME280;31493;49.058;12.190;2023-07-31T08:31:46;96043.81;;;18.12;64.79
23677;BME280;31493;49.058;12.190;2023-07-31T08:34:15;96040.03;;;18.06;63.57
23677;BME280;31493;49.058;12.190;2023-07-31T08:36:42;96044.03;;;18.27;63.83
23677;BME280;31493;49.058;12.190;2023-07-31T08:39:10;96044.47;;;18.14;64.31
23677;BME280;31493;49.058;12.190;2023-07-31T08:41:37;96046.81;;;18.17;64.67
23677;BME280;31493;49.058;12.190;2023-07-31T08:44:05;96038.47;;;18.22;64.00
23677;BME280;31493;49.058;12.190;2023-07-31T08:46:33;96044.88;;;18.27;64.63
23677;BME280;31493;49.058;12.190;2023-07-31T08:49:02;96039.66;;;18.36;64.29
23677;BME280;31493;49.058;12.190;2023-07-31T08:51:33;96040.19;;;18.47;65.79
23677;BME280;31493;49.058;12.190;2023-07-31T08:54:00;96036.16;;;18.61;64.06
23677;BME280;31493;49.058;12.190;2023-07-31T08:56:29;96030.94;;;18.94;63.40
23677;BME280;31493;49.058;12.190;2023-07-31T08:59:00;96037.16;;;18.68;63.81
23677;BME280;31493;49.058;12.190;2023-07-31T09:01:29;96030.59;;;18.80;63.01
23677;BME280;31493;49.058;12.190;2023-07-31T09:03:59;96028.31;;;18.77;63.53
23677;BME280;31493;49.058;12.190;2023-07-31T09:06:27;96033.91;;;18.99;63.04
23677;BME280;31493;49.058;12.190;2023-07-31T09:08:56;96020.44;;;18.94;63.46
23677;BME280;31493;49.058;12.190;2023-07-31T09:11:24;96018.47;;;19.28;63.92
23677;BME280;31493;49.058;12.190;2023-07-31T09:13:52;96018.16;;;19.23;61.20
23677;BME280;31493;49.058;12.190;2023-07-31T09:16:27;96016.34;;;19.16;60.90
23677;BME280;31493;49.058;12.190;2023-07-31T09:18:56;95999.91;;;18.97;60.46
23677;BME280;31493;49.058;12.190;2023-07-31T09:21:24;95994.34;;;18.84;59.91
23677;BME280;31493;49.058;12.190;2023-07-31T09:23:53;96001.88;;;19.28;60.73
23677;BME280;31493;49.058;12.190;2023-07-31T09:26:32;96003.53;;;19.45;60.38
23677;BME280;31493;49.058;12.190;2023-07-31T09:28:59;95990.19;;;19.55;59.51
23677;BME280;31493;49.058;12.190;2023-07-31T09:31:33;95997.75;;;19.66;58.64
23677;BME280;31493;49.058;12.190;2023-07-31T09:34:05;95996.84;;;19.90;58.33
23677;BME280;31493;49.058;12.190;2023-07-31T09:36:32;95991.31;;;19.77;58.74
23677;BME280;31493;49.058;12.190;2023-07-31T09:39:02;95985.56;;;19.73;58.20
23677;BME280;31493;49.058;12.190;2023-07-31T09:41:30;96000.41;;;20.05;58.62
23677;BME280;31493;49.058;12.190;2023-07-31T09:43:57;95988.91;;;20.06;56.55
23677;BME280;31493;49.058;12.190;2023-07-31T09:46:27;95975.44;;;19.93;57.24
23677;BME280;31493;49.058;12.190;2023-07-31T09:49:03;95974.28;;;19.48;58.41
23677;BME280;31493;49.058;12.190;2023-07-31T09:51:32;95986.28;;;19.51;57.72
23677;BME280;31493;49.058;12.190;2023-07-31T09:54:09;95991.59;;;19.90;58.33
23677;BME280;31493;49.058;12.190;2023-07-31T09:56:42;95979.25;;;19.90;58.30
23677;BME280;31493;49.058;12.190;2023-07-31T09:59:11;95979.66;;;20.18;57.04
23677;BME280;31493;49.058;12.190;2023-07-31T10:01:40;95971.59;;;20.51;59.27
23677;BME280;31493;49.058;12.190;2023-07-31T10:04:09;95969.81;;;20.04;55.59
23677;BME280;31493;49.058;12.190;2023-07-31T10:06:37;95964.97;;;19.85;57.31
23677;BME280;31493;49.058;12.190;2023-07-31T10:09:06;95962.09;;;19.55;56.38
23677;BME280;31493;49.058;12.190;2023-07-31T10:11:38;95968.59;;;19.84;56.73
23677;BME280;31493;49.058;12.190;2023-07-31T10:14:08;95954.81;;;20.13;56.57
23677;BME280;31493;49.058;12.190;2023-07-31T10:16:38;95952.69;;;20.08;56.16
23677;BME280;31493;49.058;12.190;2023-07-31T10:19:07;95953.69;;;20.07;56.52
23677;BME280;31493;49.058;12.190;2023-07-31T10:21:35;95941.19;;;20.40;55.35
23677;BME280;31493;49.058;12.190;2023-07-31T10:24:03;95936.84;;;20.56;55.19
23677;BME280;31493;49.058;12.190;2023-07-31T10:26:31;95936.88;;;21.16;56.01
23677;BME280;31493;49.058;12.190;2023-07-31T10:28:59;95942.97;;;21.46;55.27
23677;BME280;31493;49.058;12.190;2023-07-31T10:31:27;95930.97;;;21.59;53.29
23677;BME280;31493;49.058;12.190;2023-07-31T10:33:56;95919.97;;;21.40;52.88
23677;BME280;31493;49.058;12.190;2023-07-31T10:36:26;95924.81;;;21.37;52.66
23677;BME280;31493;49.058;12.190;2023-07-31T10:38:55;95915.63;;;21.47;52.06
23677;BME280;31493;49.058;12.190;2023-07-31T10:41:28;95925.88;;;22.01;54.28
23677;BME280;31493;49.058;12.190;2023-07-31T10:43:57;95923.56;;;22.28;51.89
23677;BME280;31493;49.058;12.190;2023-07-31T10:46:25;95915.34;;;21.42;51.42
23677;BME280;31493;49.058;12.190;2023-07-31T10:48:59;95923.88;;;21.30;52.77
23677;BME280;31493;49.058;12.190;2023-07-31T10:51:33;95911.53;;;21.30;52.38
23677;BME280;31493;49.058;12.190;2023-07-31T10:54:11;95905.59;;;21.28;51.04
23677;BME280;31493;49.058;12.190;2023-07-31T10:56:39;95891.66;;;20.67;50.64
23677;BME280;31493;49.058;12.190;2023-07-31T10:59:06;95901.47;;;20.50;52.61
23677;BME280;31493;49.058;12.190;2023-07-31T11:01:51;95905.19;;;20.79;52.07
23677;BME280;31493;49.058;12.190;2023-07-31T11:04:24;95901.75;;;20.78;52.51
23677;BME280;31493;49.058;12.190;2023-07-31T11:06:58;95900.69;;;20.87;51.82
23677;BME280;31493;49.058;12.190;2023-07-31T11:09:28;95905.06;;;21.18;51.18
23677;BME280;31493;49.058;12.190;2023-07-31T11:11:56;95904.44;;;21.08;50.72
23677;BME280;31493;49.058;12.190;2023-07-31T11:14:23;95897.34;;;21.08;50.67
23677;BME280;31493;49.058;12.190;2023-07-31T11:16:50;95891.50;;;21.21;50.29
23677;BME280;31493;49.058;12.190;2023-07-31T11:19:22;95891.16;;;21.68;51.74
23677;BME280;31493;49.058;12.190;2023-07-31T11:21:51;95876.41;;;22.25;50.55
23677;BME280;31493;49.058;12.190;2023-07-31T11:24:18;95880.19;;;22.58;48.29
23677;BME280;31493;49.058;12.190;2023-07-31T11:26:50;95884.47;;;22.81;48.73
23677;BME280;31493;49.058;12.190;2023-07-31T11:29:17;95879.00;;;22.82;48.63
23677;BME280;31493;49.058;12.190;2023-07-31T11:31:45;95879.50;;;22.50;48.22
23677;BME280;31493;49.058;12.190;2023-07-31T11:34:13;95882.59;;;22.75;47.65
23677;BME280;31493;49.058;12.190;2023-07-31T11:36:52;95857.97;;;22.10;48.56
23677;BME280;31493;49.058;12.190;2023-07-31T11:39:19;95877.50;;;21.65;49.36
23677;BME280;31493;49.058;12.190;2023-07-31T11:41:46;95875.69;;;21.65;50.85
23677;BME280;31493;49.058;12.190;2023-07-31T11:44:13;95870.00;;;22.34;49.60
23677;BME280;31493;49.058;12.190;2023-07-31T11:46:40;95856.22;;;22.81;48.21
23677;BME280;31493;49.058;12.190;2023-07-31T11:49:08;95850.81;;;22.90;46.63
23677;BME280;31493;49.058;12.190;2023-07-31T11:51:35;95845.16;;;22.71;48.17
23677;BME280;31493;49.058;12.190;2023-07-31T11:54:04;95845.34;;;23.26;47.68
23677;BME280;31493;49.058;12.190;2023-07-31T11:56:31;95845.16;;;23.27;46.60
23677;BME280;31493;49.058;12.190;2023-07-31T11:58:59;95834.72;;;23.19;45.37
23677;BME280;31493;49.058;12.190;2023-07-31T12:01:29;95837.59;;;22.90;46.50
23677;BME280;31493;49.058;12.190;2023-07-31T12:03:56;95827.91;;;22.75;46.39
23677;BME280;31493;49.058;12.190;2023-07-31T12:06:32;95833.84;;;23.12;45.40
23677;BME280;31493;49.058;12.190;2023-07-31T12:09:01;95829.34;;;22.56;47.67
23677;BME280;31493;49.058;12.190;2023-07-31T12:11:30;95825.97;;;22.20;47.91
23677;BME280;31493;49.058;12.190;2023-07-31T12:13:57;95821.19;;;22.73;46.46
23677;BME280;31493;49.058;12.190;2023-07-31T12:16:26;95817.16;;;23.39;45.04
23677;BME280;31493;49.058;12.190;2023-07-31T12:18:53;95803.66;;;22.22;46.62
23677;BME280;31493;49.058;12.190;2023-07-31T12:21:20;95815.88;;;22.94;45.81
23677;BME280;31493;49.058;12.190;2023-07-31T12:23:47;95801.34;;;23.53;45.81
23677;BME280;31493;49.058;12.190;2023-07-31T12:26:16;95792.16;;;22.79;45.49
23677;BME280;31493;49.058;12.190;2023-07-31T12:28:46;95803.72;;;22.29;48.15
23677;BME280;31493;49.058;12.190;2023-07-31T12:31:15;95803.16;;;22.12;47.52
23677;BME280;31493;49.058;12.190;2023-07-31T12:33:43;95800.66;;;23.03;46.59
23677;BME280;31493;49.058;12.190;2023-07-31T12:36:12;95800.31;;;23.12;45.11
23677;BME280;31493;49.058;12.190;2023-07-31T12:38:40;95795.22;;;23.11;46.20
23677;BME280;31493;49.058;12.190;2023-07-31T12:41:07;95804.84;;;23.19;45.10
23677;BME280;31493;49.058;12.190;2023-07-31T12:43:35;95784.22;;;23.49;44.07
23677;BME280;31493;49.058;12.190;2023-07-31T12:46:04;95798.56;;;23.26;46.42
23677;BME280;31493;49.058;12.190;2023-07-31T12:48:32;95799.72;;;23.17;45.69
23677;BME280;31493;49.058;12.190;2023-07-31T12:50:59;95793.16;;;23.06;45.63
23677;BME280;31493;49.058;12.190;2023-07-31T12:53:26;95783.47;;;22.85;45.77
23677;BME280;31493;49.058;12.190;2023-07-31T12:55:53;95781.03;;;22.13;46.66